Terminal Aerodrome Forecast
Issued by NWS Bismarck, ND

Home | Current Version | Previous Version | Graphics & Text | Print | Product List | Glossary On
Versions: 1 2 3 4 5 6 7 8 9 10 11 12 13 14 15 16 17
000
FTUS43 KBIS 151132
TAFISN
TAF
KISN 151132Z 1512/1612 26012KT P6SM SCT080 SCT120 WS020/31030KT
     FM151600 29014G22KT P6SM SKC
     FM152300 26009KT P6SM SKC
     FM160700 20006KT P6SM SKC WS020/24030KT
     FM161100 22006KT P6SM SKC WS020/27030KT=

USA.gov is the U.S. government's official web portal to all federal, state and local government web resources and services.